createdAt,value
2019-03-22T00:01:00.405Z,8.47
2019-03-22T00:03:28.023Z,8.48
2019-03-22T00:05:55.453Z,8.49
2019-03-22T00:08:22.861Z,8.51
2019-03-22T00:10:50.252Z,8.38
2019-03-22T00:13:17.658Z,8.25
2019-03-22T00:15:45.112Z,8.29
2019-03-22T00:18:12.566Z,8.20
2019-03-22T00:20:40.127Z,8.08
2019-03-22T00:23:08.038Z,7.94
2019-03-22T00:25:35.882Z,7.95
2019-03-22T00:28:03.310Z,7.89
2019-03-22T00:30:30.928Z,7.83
2019-03-22T00:32:58.329Z,7.77
2019-03-22T00:35:25.770Z,7.72
2019-03-22T00:37:54.135Z,7.71
2019-03-22T00:40:21.549Z,7.68
2019-03-22T00:42:48.971Z,7.62
2019-03-22T00:45:16.374Z,7.66
2019-03-22T00:47:43.805Z,7.67
2019-03-22T00:50:11.198Z,7.70
2019-03-22T00:52:38.617Z,7.70
2019-03-22T00:55:06.006Z,7.79
2019-03-22T00:57:33.424Z,7.81
2019-03-22T01:00:00.985Z,7.77
2019-03-22T01:02:28.553Z,7.73
2019-03-22T01:04:55.934Z,7.61
2019-03-22T01:07:23.341Z,7.55
2019-03-22T01:09:50.745Z,7.49
2019-03-22T01:12:18.161Z,7.40
2019-03-22T01:14:45.638Z,7.30
2019-03-22T01:17:13.158Z,7.19
2019-03-22T01:19:40.624Z,7.16
2019-03-22T01:22:08.063Z,7.17
2019-03-22T01:24:35.484Z,7.18
2019-03-22T01:27:03.042Z,7.10
2019-03-22T01:29:30.452Z,6.96
2019-03-22T01:31:57.867Z,6.84
2019-03-22T01:34:25.343Z,6.75
2019-03-22T01:36:52.781Z,6.71
2019-03-22T01:39:20.187Z,6.67
2019-03-22T01:41:47.600Z,6.64
2019-03-22T01:44:15.000Z,6.58
2019-03-22T01:46:42.578Z,6.51
2019-03-22T01:49:10.033Z,6.42
2019-03-22T01:51:37.642Z,6.28
2019-03-22T01:54:06.014Z,6.25
2019-03-22T01:56:33.427Z,6.21
2019-03-22T01:59:00.838Z,6.18
2019-03-22T02:01:28.356Z,6.24
2019-03-22T02:03:55.794Z,6.21
2019-03-22T02:06:23.229Z,6.22
2019-03-22T02:08:50.642Z,6.26
2019-03-22T02:11:18.183Z,6.30
2019-03-22T02:13:45.955Z,6.34
2019-03-22T02:16:13.348Z,6.32
2019-03-22T02:18:40.790Z,6.34
2019-03-22T02:21:08.419Z,6.43
2019-03-22T02:23:35.795Z,6.48
2019-03-22T02:26:03.209Z,6.51
2019-03-22T02:28:30.619Z,6.63
2019-03-22T02:30:58.182Z,6.69
2019-03-22T02:33:25.711Z,6.56
2019-03-22T02:35:53.109Z,6.51
2019-03-22T02:38:20.520Z,6.48
2019-03-22T02:40:47.930Z,6.38
2019-03-22T02:43:15.348Z,6.31
2019-03-22T02:45:43.981Z,6.26
2019-03-22T02:48:11.389Z,6.28
2019-03-22T02:50:38.837Z,6.34
2019-03-22T02:53:07.018Z,6.42
2019-03-22T02:55:34.553Z,6.51
2019-03-22T02:58:01.988Z,6.53
2019-03-22T03:00:29.406Z,6.58
2019-03-22T03:02:56.801Z,6.66
2019-03-22T03:05:24.219Z,6.60
2019-03-22T03:07:51.623Z,6.60
2019-03-22T03:10:19.258Z,6.56
2019-03-22T03:12:46.821Z,6.41
2019-03-22T03:15:14.215Z,6.33
2019-03-22T03:17:41.807Z,6.19
2019-03-22T03:20:09.861Z,6.06
2019-03-22T03:22:37.311Z,6.07
2019-03-22T03:25:06.183Z,6.09
2019-03-22T03:27:33.582Z,6.16
2019-03-22T03:30:01.065Z,6.07
2019-03-22T03:32:28.724Z,5.96
2019-03-22T03:34:56.138Z,5.81
2019-03-22T03:37:23.523Z,5.73
2019-03-22T03:39:50.980Z,5.78
2019-03-22T03:42:18.995Z,5.90
2019-03-22T03:44:46.382Z,5.92
2019-03-22T03:47:13.869Z,5.93
2019-03-22T03:49:41.265Z,5.92
2019-03-22T03:52:08.846Z,5.90
2019-03-22T03:54:36.715Z,5.83
2019-03-22T03:57:04.313Z,5.72
2019-03-22T03:59:31.720Z,5.70
2019-03-22T04:01:59.542Z,5.77
2019-03-22T04:04:27.029Z,5.83
2019-03-22T04:06:54.359Z,5.86
2019-03-22T04:09:21.875Z,5.81
2019-03-22T04:11:49.307Z,5.79
2019-03-22T04:14:16.763Z,5.72
2019-03-22T04:16:44.171Z,5.59
2019-03-22T04:19:11.581Z,5.56
2019-03-22T04:21:39.069Z,5.52
2019-03-22T04:24:06.654Z,5.51
2019-03-22T04:26:34.085Z,5.53
2019-03-22T04:29:07.645Z,5.53
2019-03-22T04:31:28.955Z,5.50
2019-03-22T04:33:56.381Z,5.41
2019-03-22T04:36:24.539Z,5.30
2019-03-22T04:38:51.932Z,5.32
2019-03-22T04:41:19.334Z,5.38
2019-03-22T04:43:46.720Z,5.56
2019-03-22T04:46:14.146Z,5.77
2019-03-22T04:48:42.633Z,5.93
2019-03-22T04:51:10.034Z,6.00
2019-03-22T04:53:37.532Z,6.00
2019-03-22T04:56:04.978Z,5.97
2019-03-22T04:58:32.409Z,6.01
2019-03-22T05:00:59.889Z,6.03
2019-03-22T05:03:27.376Z,6.06
2019-03-22T05:05:54.771Z,6.06
2019-03-22T05:08:22.176Z,6.12
2019-03-22T05:10:49.576Z,6.07
2019-03-22T05:13:16.980Z,5.97
2019-03-22T05:15:44.423Z,5.81
2019-03-22T05:18:11.810Z,5.74
2019-03-22T05:20:39.206Z,5.74
2019-03-22T05:23:06.634Z,5.61
2019-03-22T05:25:34.090Z,5.46
2019-03-22T05:28:01.482Z,5.43
2019-03-22T05:33:31.054Z,5.93
2019-03-22T05:35:58.489Z,5.93
2019-03-22T05:38:25.944Z,5.85
2019-03-22T05:40:53.342Z,5.73
2019-03-22T05:43:20.759Z,5.49
2019-03-22T05:45:48.175Z,5.28
2019-03-22T05:48:15.637Z,5.16
2019-03-22T05:50:43.039Z,5.20
2019-03-22T05:53:10.505Z,5.18
2019-03-22T05:55:37.899Z,5.21
2019-03-22T05:58:05.302Z,5.13
2019-03-22T06:00:32.729Z,5.13
2019-03-22T06:03:00.133Z,5.10
2019-03-22T06:05:27.567Z,5.07
2019-03-22T06:07:54.967Z,5.13
2019-03-22T06:10:22.431Z,5.59
2019-03-22T06:12:50.052Z,5.86
2019-03-22T06:15:17.448Z,5.79
2019-03-22T06:17:51.592Z,5.89
2019-03-22T06:20:12.330Z,6.07
2019-03-22T06:22:39.711Z,6.42
2019-03-22T06:25:07.162Z,6.56
2019-03-22T06:27:34.574Z,6.66
2019-03-22T06:30:01.968Z,6.70
2019-03-22T06:32:29.413Z,6.73
2019-03-22T06:34:56.825Z,6.70
2019-03-22T06:37:24.239Z,6.81
2019-03-22T06:39:51.653Z,6.99
2019-03-22T06:42:19.871Z,7.15
2019-03-22T06:44:47.457Z,7.15
2019-03-22T06:47:14.899Z,7.17
2019-03-22T06:49:42.334Z,7.22
2019-03-22T06:52:09.952Z,7.38
2019-03-22T06:54:37.446Z,7.49
2019-03-22T06:57:04.875Z,7.60
2019-03-22T06:59:32.324Z,7.56
2019-03-22T07:01:59.756Z,7.56
2019-03-22T07:04:27.434Z,7.65
2019-03-22T07:06:54.902Z,7.66
2019-03-22T07:09:22.309Z,7.76
2019-03-22T07:11:49.919Z,7.95
2019-03-22T07:14:17.325Z,8.18
2019-03-22T07:16:44.833Z,8.24
2019-03-22T07:19:12.233Z,8.41
2019-03-22T07:21:39.670Z,8.59
2019-03-22T07:24:07.232Z,8.70
2019-03-22T07:26:34.646Z,8.83
2019-03-22T07:29:01.650Z,8.88
2019-03-22T07:31:28.598Z,8.88
2019-03-22T07:33:55.548Z,8.89
2019-03-22T07:36:23.525Z,9.03
2019-03-22T07:38:51.778Z,9.22
2019-03-22T07:41:18.712Z,9.39
2019-03-22T07:43:45.950Z,9.37
2019-03-22T07:46:13.959Z,9.49
2019-03-22T07:48:42.443Z,9.67
2019-03-22T07:51:09.425Z,9.62
2019-03-22T07:53:36.841Z,9.50
2019-03-22T07:56:03.999Z,9.57
2019-03-22T07:58:30.946Z,9.85
2019-03-22T08:00:58.109Z,9.97
2019-03-22T08:03:26.030Z,10.09
2019-03-22T08:05:53.125Z,10.13
2019-03-22T08:08:20.084Z,10.22
2019-03-22T08:10:47.185Z,10.48
2019-03-22T08:13:15.376Z,10.76
2019-03-22T08:15:42.471Z,11.09
2019-03-22T08:18:09.415Z,11.28
2019-03-22T08:20:38.666Z,11.46
2019-03-22T08:23:03.798Z,11.65
2019-03-22T08:25:32.445Z,11.59
2019-03-22T08:27:57.675Z,11.65
2019-03-22T08:30:24.616Z,11.77
2019-03-22T08:32:51.556Z,11.86
2019-03-22T08:35:18.642Z,11.93
2019-03-22T08:37:52.502Z,11.92
2019-03-22T08:40:12.606Z,11.98
2019-03-22T08:42:40.292Z,12.18
2019-03-22T08:45:07.711Z,12.17
2019-03-22T08:47:35.147Z,12.21
2019-03-22T08:50:02.171Z,12.26
2019-03-22T08:52:29.635Z,12.35
2019-03-22T08:54:56.991Z,12.21
2019-03-22T08:57:25.157Z,12.23
2019-03-22T08:59:51.851Z,12.36
2019-03-22T09:02:19.278Z,12.64
2019-03-22T09:04:48.195Z,12.92
2019-03-22T09:07:15.860Z,13.15
2019-03-22T09:09:43.282Z,13.14
2019-03-22T09:12:10.783Z,13.10
2019-03-22T09:14:38.322Z,13.13
2019-03-22T09:17:05.772Z,13.11
2019-03-22T09:19:33.198Z,13.18
2019-03-22T09:22:00.718Z,13.37
2019-03-22T09:24:38.488Z,13.58
2019-03-22T09:26:55.577Z,13.63
2019-03-22T09:29:23.024Z,13.70
2019-03-22T09:31:53.494Z,13.79
2019-03-22T09:34:17.741Z,13.82
2019-03-22T09:36:44.959Z,14.03
2019-03-22T09:39:12.365Z,14.27
2019-03-22T09:41:39.839Z,14.38
2019-03-22T09:44:07.289Z,14.36
2019-03-22T09:46:34.687Z,14.43
2019-03-22T09:49:02.836Z,14.42
2019-03-22T09:51:30.244Z,14.55
2019-03-22T09:53:57.178Z,14.70
2019-03-22T09:56:24.216Z,14.89
2019-03-22T09:58:51.168Z,15.10
2019-03-22T10:01:23.550Z,15.34
2019-03-22T10:03:46.049Z,15.19
2019-03-22T10:06:13.228Z,14.62
2019-03-22T10:08:40.235Z,14.48
2019-03-22T10:11:07.811Z,14.41
2019-03-22T10:13:34.781Z,14.51
2019-03-22T10:16:02.269Z,14.85
2019-03-22T10:18:29.188Z,15.11
2019-03-22T10:20:56.721Z,15.47
2019-03-22T10:23:23.889Z,15.86
2019-03-22T10:25:51.020Z,16.19
2019-03-22T10:28:18.487Z,16.47
2019-03-22T10:30:45.719Z,16.71
2019-03-22T10:33:22.740Z,17.08
2019-03-22T10:35:40.642Z,17.33
2019-03-22T10:38:16.001Z,17.54
2019-03-22T10:40:35.562Z,17.68
2019-03-22T10:43:03.976Z,17.86
2019-03-22T10:45:31.517Z,18.13
2019-03-22T10:47:58.966Z,18.27
2019-03-22T10:50:26.446Z,18.58
2019-03-22T10:52:55.062Z,18.90
2019-03-22T10:55:29.783Z,19.04
2019-03-22T10:57:50.143Z,19.07
2019-03-22T11:00:17.576Z,19.22
2019-03-22T11:02:45.224Z,19.33
2019-03-22T11:05:12.644Z,19.57
2019-03-22T11:07:40.077Z,19.70
2019-03-22T11:10:07.502Z,19.98
2019-03-22T11:12:34.469Z,20.12
2019-03-22T11:15:02.003Z,20.31
2019-03-22T11:17:29.499Z,20.43
2019-03-22T11:19:57.604Z,20.63
2019-03-22T11:22:24.721Z,20.73
2019-03-22T11:24:51.661Z,20.82
2019-03-22T11:27:19.147Z,20.93
2019-03-22T11:29:46.121Z,21.01
2019-03-22T11:32:13.159Z,21.21
2019-03-22T11:34:40.221Z,21.49
2019-03-22T11:37:07.863Z,21.63
2019-03-22T11:39:34.285Z,21.83
2019-03-22T11:42:01.296Z,22.05
2019-03-22T11:44:29.042Z,22.25
2019-03-22T11:46:56.252Z,22.60
2019-03-22T11:49:23.461Z,22.76
2019-03-22T11:51:50.407Z,22.82
2019-03-22T11:54:18.915Z,23.14
2019-03-22T11:56:46.471Z,23.35
2019-03-22T11:59:13.888Z,23.54
2019-03-22T12:01:41.313Z,23.66
2019-03-22T12:04:08.894Z,23.89
2019-03-22T12:06:36.324Z,24.06
2019-03-22T12:09:03.295Z,24.18
2019-03-22T12:11:30.255Z,24.21
2019-03-22T12:13:57.294Z,24.33
2019-03-22T12:16:24.268Z,24.40
2019-03-22T12:18:51.214Z,24.45
2019-03-22T12:21:18.324Z,24.57
2019-03-22T12:23:45.291Z,24.83
2019-03-22T12:26:12.244Z,24.84
2019-03-22T12:28:39.191Z,24.93
2019-03-22T12:31:06.621Z,25.11
2019-03-22T12:33:34.109Z,25.18
2019-03-22T12:36:01.528Z,25.19
2019-03-22T12:38:29.165Z,25.30
2019-03-22T12:40:56.590Z,25.53
2019-03-22T12:43:24.014Z,25.69
2019-03-22T12:45:51.475Z,25.71
2019-03-22T12:48:18.517Z,25.70
2019-03-22T12:50:45.669Z,25.74
2019-03-22T12:53:12.666Z,25.76
2019-03-22T12:55:39.652Z,25.75
2019-03-22T12:58:06.617Z,25.92
2019-03-22T13:00:33.860Z,25.97
2019-03-22T13:03:00.860Z,26.02
2019-03-22T13:05:27.994Z,26.06
2019-03-22T13:07:55.001Z,26.11
2019-03-22T13:10:24.347Z,26.09
2019-03-22T13:12:51.758Z,26.19
2019-03-22T13:15:19.172Z,26.31
2019-03-22T13:17:46.198Z,26.51
2019-03-22T13:20:13.173Z,26.57
2019-03-22T13:22:40.123Z,26.63
2019-03-22T13:25:07.544Z,26.73
2019-03-22T13:27:34.947Z,26.84
2019-03-22T13:30:02.539Z,26.93
2019-03-22T13:32:29.957Z,26.98
2019-03-22T13:34:57.542Z,27.02
2019-03-22T13:37:24.982Z,27.02
2019-03-22T13:39:52.402Z,27.08
2019-03-22T13:42:20.636Z,27.08
2019-03-22T13:44:48.200Z,26.95
2019-03-22T13:47:15.595Z,26.94
2019-03-22T13:49:43.665Z,26.94
2019-03-22T13:52:11.106Z,27.10
2019-03-22T13:54:38.593Z,27.11
2019-03-22T13:57:06.169Z,27.09
2019-03-22T13:59:33.875Z,27.13
2019-03-22T14:02:01.305Z,27.20
2019-03-22T14:04:28.715Z,27.13
2019-03-22T14:06:56.183Z,27.07
2019-03-22T14:09:23.837Z,27.16
2019-03-22T14:11:51.271Z,27.16
2019-03-22T14:14:18.712Z,27.11
2019-03-22T14:16:46.289Z,27.00
2019-03-22T14:19:13.849Z,26.95
2019-03-22T14:21:41.333Z,26.88
2019-03-22T14:24:08.747Z,26.79
2019-03-22T14:26:36.521Z,26.76
2019-03-22T14:29:03.494Z,26.75
2019-03-22T14:31:30.432Z,26.81
2019-03-22T14:33:57.456Z,26.74
2019-03-22T14:36:24.426Z,26.70
2019-03-22T14:38:52.695Z,26.62
2019-03-22T14:41:19.638Z,26.55
2019-03-22T14:43:46.586Z,26.46
2019-03-22T14:46:13.574Z,26.38
2019-03-22T14:48:40.578Z,26.40
2019-03-22T14:51:07.609Z,26.39
2019-03-22T14:53:34.558Z,26.45
2019-03-22T14:56:01.542Z,26.49
2019-03-22T14:58:28.612Z,26.56
2019-03-22T15:00:55.582Z,26.52
2019-03-22T15:03:24.383Z,26.58
2019-03-22T15:05:51.399Z,26.50
2019-03-22T15:08:18.361Z,26.43
2019-03-22T15:10:45.322Z,26.32
2019-03-22T15:13:12.270Z,26.26
2019-03-22T15:15:51.177Z,26.20
2019-03-22T15:18:34.830Z,26.02
2019-03-22T15:21:07.430Z,25.85
2019-03-22T15:23:46.241Z,25.89
2019-03-22T15:26:18.798Z,25.89
2019-03-22T15:28:52.203Z,25.76
2019-03-22T15:31:24.807Z,25.81
2019-03-22T15:34:05.763Z,25.90
2019-03-22T15:36:49.477Z,25.91
2019-03-22T15:39:22.504Z,25.67
2019-03-22T15:41:49.342Z,25.29
2019-03-22T15:44:16.453Z,25.32
2019-03-22T15:46:43.414Z,25.21
2019-03-22T15:49:10.660Z,24.86
2019-03-22T15:51:37.616Z,24.76
2019-03-22T15:54:04.632Z,24.63
2019-03-22T15:56:31.618Z,24.64
2019-03-22T15:58:58.834Z,24.79
2019-03-22T16:01:25.794Z,24.90
2019-03-22T16:03:52.760Z,24.83
2019-03-22T16:06:19.826Z,24.74
2019-03-22T16:08:46.870Z,24.74
2019-03-22T16:11:13.866Z,24.68
2019-03-22T16:13:40.859Z,24.50
2019-03-22T16:16:07.883Z,24.31
2019-03-22T16:18:34.879Z,24.20
2019-03-22T16:21:01.879Z,24.04
2019-03-22T16:23:28.875Z,23.94
2019-03-22T16:25:55.835Z,23.81
2019-03-22T16:28:22.884Z,23.56
2019-03-22T16:30:49.890Z,23.32
2019-03-22T16:33:16.941Z,23.28
2019-03-22T16:35:43.902Z,23.06
2019-03-22T16:38:10.887Z,22.82
2019-03-22T16:40:37.829Z,22.39
2019-03-22T16:43:04.834Z,22.22
2019-03-22T16:45:32.738Z,21.99
2019-03-22T16:47:59.705Z,21.70
2019-03-22T16:50:26.669Z,21.53
2019-03-22T16:52:53.789Z,21.37
2019-03-22T16:55:20.847Z,21.22
2019-03-22T16:57:47.788Z,20.94
2019-03-22T17:00:14.866Z,20.60
2019-03-22T17:02:42.263Z,20.02
2019-03-22T17:05:09.826Z,19.73
2019-03-22T17:07:37.236Z,19.36
2019-03-22T17:10:05.391Z,19.19
2019-03-22T17:12:32.983Z,19.15
2019-03-22T17:15:00.580Z,18.93
2019-03-22T17:17:28.006Z,18.68
2019-03-22T17:19:55.463Z,18.48
2019-03-22T17:22:22.873Z,18.17
2019-03-22T17:24:50.328Z,17.62
2019-03-22T17:27:17.938Z,17.13
2019-03-22T17:29:45.570Z,16.84
2019-03-22T17:32:13.122Z,16.42
2019-03-22T17:41:24.653Z,15.60
2019-03-22T17:43:52.093Z,15.55
2019-03-22T17:46:19.494Z,15.53
2019-03-22T17:48:46.545Z,15.50
2019-03-22T17:51:13.529Z,15.32
2019-03-22T17:53:40.557Z,15.36
2019-03-22T17:56:08.078Z,15.40
2019-03-22T17:58:35.487Z,15.39
2019-03-22T18:01:03.011Z,15.39
2019-03-22T18:03:30.576Z,15.35
2019-03-22T18:05:57.982Z,15.28
2019-03-22T18:08:25.399Z,15.23
2019-03-22T18:10:52.831Z,15.16
2019-03-22T18:13:20.499Z,15.10
2019-03-22T18:15:47.985Z,14.94
2019-03-22T18:18:15.409Z,14.67
2019-03-22T18:20:43.010Z,14.48
2019-03-22T18:23:10.422Z,14.48
2019-03-22T18:25:37.902Z,14.59
2019-03-22T18:28:05.328Z,14.64
2019-03-22T18:30:32.786Z,14.65
2019-03-22T18:33:00.356Z,14.63
2019-03-22T18:35:27.802Z,14.61
2019-03-22T18:37:55.191Z,14.62
2019-03-22T18:40:23.532Z,14.57
2019-03-22T18:42:50.972Z,14.53
2019-03-22T18:45:18.386Z,14.47
2019-03-22T18:47:45.862Z,14.44
2019-03-22T18:50:13.947Z,14.32
2019-03-22T18:52:41.346Z,14.22
2019-03-22T18:55:08.895Z,14.16
2019-03-22T18:57:36.353Z,14.15
2019-03-22T19:00:08.554Z,14.17
2019-03-22T19:02:36.110Z,14.19
2019-03-22T19:05:03.524Z,14.16
2019-03-22T19:07:30.939Z,14.09
2019-03-22T19:09:58.760Z,14.05
2019-03-22T19:12:26.491Z,14.05
2019-03-22T19:14:54.284Z,14.07
2019-03-22T19:17:21.951Z,14.08
2019-03-22T19:19:49.375Z,13.97
2019-03-22T19:22:16.821Z,13.86
2019-03-22T19:24:44.262Z,13.72
2019-03-22T19:27:11.723Z,13.61
2019-03-22T19:29:39.235Z,13.61
2019-03-22T19:32:13.440Z,13.55
2019-03-22T19:34:34.284Z,13.60
2019-03-22T19:37:01.689Z,13.65
2019-03-22T19:39:29.183Z,13.65
2019-03-22T19:41:56.615Z,13.63
2019-03-22T19:44:24.069Z,13.56
2019-03-22T19:46:51.526Z,13.53
2019-03-22T19:49:18.962Z,13.47
2019-03-22T19:51:46.383Z,13.39
2019-03-22T19:54:13.788Z,13.36
2019-03-22T19:56:41.263Z,13.36
2019-03-22T19:59:08.775Z,13.13
2019-03-22T20:01:36.306Z,13.02
2019-03-22T20:04:03.779Z,12.90
2019-03-22T20:06:31.194Z,12.86
2019-03-22T20:08:58.727Z,12.93
2019-03-22T20:11:26.263Z,12.95
2019-03-22T20:13:53.881Z,12.98
2019-03-22T20:16:21.340Z,12.99
2019-03-22T20:18:48.747Z,12.96
2019-03-22T20:21:16.253Z,12.98
2019-03-22T20:23:53.243Z,13.03
2019-03-22T20:26:11.089Z,13.00
2019-03-22T20:28:38.568Z,12.99
2019-03-22T20:31:06.238Z,12.94
2019-03-22T20:33:33.900Z,12.92
2019-03-22T20:36:01.316Z,12.86
2019-03-22T20:38:28.741Z,12.79
2019-03-22T20:40:56.158Z,12.66
2019-03-22T20:43:23.777Z,12.54
2019-03-22T20:45:51.582Z,12.42
2019-03-22T20:48:19.405Z,12.29
2019-03-22T20:50:46.813Z,12.19
2019-03-22T20:53:14.239Z,12.16
2019-03-22T20:55:41.667Z,12.17
2019-03-22T20:58:09.187Z,12.19
2019-03-22T21:00:36.629Z,12.16
2019-03-22T21:03:04.185Z,12.01
2019-03-22T21:05:31.638Z,11.83
2019-03-22T21:07:59.179Z,11.73
2019-03-22T21:10:26.620Z,11.77
2019-03-22T21:12:54.075Z,11.81
2019-03-22T21:15:24.664Z,11.84
2019-03-22T21:17:49.905Z,11.74
2019-03-22T21:20:17.319Z,11.64
2019-03-22T21:22:44.952Z,11.55
2019-03-22T21:25:12.418Z,11.49
2019-03-22T21:27:39.923Z,11.51
2019-03-22T21:30:08.541Z,11.51
2019-03-22T21:32:44.676Z,11.48
2019-03-22T21:35:03.401Z,11.47
2019-03-22T21:37:30.924Z,11.53
2019-03-22T21:39:58.327Z,11.58
2019-03-22T21:42:26.340Z,11.58
2019-03-22T21:44:53.734Z,11.58
2019-03-22T21:47:21.590Z,11.44
2019-03-22T21:49:49.003Z,11.41
2019-03-22T21:52:16.488Z,11.34
2019-03-22T21:54:43.887Z,11.24
2019-03-22T21:57:11.286Z,11.23
2019-03-22T21:59:39.559Z,11.25
2019-03-22T22:02:06.971Z,11.34
2019-03-22T22:04:34.491Z,11.40
2019-03-22T22:07:01.883Z,11.46
2019-03-22T22:09:29.302Z,11.50
2019-03-22T22:11:56.745Z,11.51
2019-03-22T22:14:24.194Z,11.49
2019-03-22T22:16:51.633Z,11.44
2019-03-22T22:19:19.435Z,11.41
2019-03-22T22:21:46.995Z,11.34
2019-03-22T22:24:14.489Z,11.31
2019-03-22T22:26:41.885Z,11.32
2019-03-22T22:29:09.625Z,11.29
2019-03-22T22:31:37.048Z,11.31
2019-03-22T22:34:04.541Z,11.28
2019-03-22T22:36:32.044Z,11.18
2019-03-22T22:39:00.231Z,11.16
2019-03-22T22:41:27.667Z,10.99
2019-03-22T22:43:55.101Z,10.84
2019-03-22T22:46:22.557Z,10.76
2019-03-22T22:48:49.984Z,10.82
2019-03-22T22:51:17.379Z,10.86
2019-03-22T22:53:44.836Z,10.81
2019-03-22T22:56:12.353Z,10.79
2019-03-22T22:58:39.759Z,10.82
2019-03-22T23:01:08.017Z,10.68
2019-03-22T23:03:35.603Z,10.57
2019-03-22T23:06:09.439Z,10.45
2019-03-22T23:08:30.419Z,10.55
2019-03-22T23:10:58.109Z,10.66
2019-03-22T23:13:26.371Z,10.74
2019-03-22T23:15:53.866Z,10.73
2019-03-22T23:18:21.258Z,10.70
2019-03-22T23:20:48.746Z,10.71
2019-03-22T23:23:16.172Z,10.72
2019-03-22T23:25:43.603Z,10.72
2019-03-22T23:28:11.087Z,10.57
2019-03-22T23:30:38.555Z,10.42
2019-03-22T23:33:05.973Z,10.40
2019-03-22T23:35:33.408Z,10.32
2019-03-22T23:38:01.540Z,10.23
2019-03-22T23:40:29.873Z,10.18
2019-03-22T23:42:57.384Z,10.10
2019-03-22T23:45:24.834Z,10.12
2019-03-22T23:47:53.028Z,10.04
2019-03-22T23:50:19.724Z,9.99
2019-03-22T23:52:47.123Z,10.04
2019-03-22T23:55:15.178Z,10.03
2019-03-22T23:57:42.584Z,10.00
